SWR2552 LSZH-LEAL
Flight info
| Callsign | SWR2552 |
|---|---|
| Flight time | N/A |
| Altitude | 33000 |
| Route | VEBI1X VEBIT T50 ROTOS Z669 ULMES DCT VADAR DCT GEVEA DCT INCUS DCT BALSI/N0480F370 DCT RETNO DCT TUPOX DCT MTG DCT DIVKO DCT VATIR DCT PIVUS DCT SULID DCT SISMO DCT AKAMU DCT ADX DCT OKITI DCT IBEBA M603 GERVU GERV3M |
| Aircraft | B77W/H-VGDW/C |
Departure
| Time | 2026-05-04 18:45 |
|---|---|
| Airport | Zürich Airport (LSZH) |
Arrival
| Time | N/A |
|---|---|
| Airport | Alicante-Elche Miguel Hernández Airport (LEAL) |
| Time | Latitude | Longitude | Altitude | Speed | Heading |
|---|---|---|---|---|---|
| 2026-05-04 18:36 | 47.46009 | 8.55517 | 1408 ft | 0 kts | 99° |
| 2026-05-04 18:40 | 47.46009 | 8.55518 | 1402 ft | 0 kts | 99° |
| 2026-05-04 18:41 | 47.46008 | 8.55531 | 1410 ft | 4 kts | 99° |
| 2026-05-04 18:41 | 47.45993 | 8.55602 | 1407 ft | 8 kts | 112° |
| 2026-05-04 18:41 | 47.45969 | 8.55675 | 1410 ft | 8 kts | 116° |
| 2026-05-04 18:41 | 47.45946 | 8.55762 | 1407 ft | 9 kts | 103° |
| 2026-05-04 18:42 | 47.45936 | 8.55864 | 1412 ft | 13 kts | 97° |
| 2026-05-04 18:42 | 47.45923 | 8.56035 | 1411 ft | 19 kts | 95° |
| 2026-05-04 18:42 | 47.45917 | 8.56165 | 1410 ft | 19 kts | 94° |
| 2026-05-04 18:42 | 47.45906 | 8.56356 | 1416 ft | 19 kts | 97° |
| 2026-05-04 18:43 | 47.45829 | 8.56506 | 1412 ft | 19 kts | 138° |
| 2026-05-04 18:43 | 47.45790 | 8.56694 | 1410 ft | 19 kts | 96° |
| 2026-05-04 18:43 | 47.45778 | 8.56885 | 1408 ft | 13 kts | 94° |
| 2026-05-04 18:43 | 47.45763 | 8.56992 | 1406 ft | 9 kts | 117° |
| 2026-05-04 18:44 | 47.45714 | 8.57042 | 1409 ft | 9 kts | 166° |
| 2026-05-04 18:44 | 47.45676 | 8.57029 | 1410 ft | 9 kts | 217° |
| 2026-05-04 18:44 | 47.45669 | 8.56912 | 1405 ft | 9 kts | 277° |
| 2026-05-04 18:44 | 47.45676 | 8.56820 | 1410 ft | 11 kts | 276° |
| 2026-05-04 18:45 | 47.45694 | 8.56557 | 1403 ft | 49 kts | 275° |
| 2026-05-04 18:45 | 47.45760 | 8.55610 | 1401 ft | 135 kts | 276° |
| 2026-05-04 18:45 | 47.45882 | 8.53880 | 1456 ft | 196 kts | 274° |
| 2026-05-04 18:45 | 47.46024 | 8.51830 | 2194 ft | 198 kts | 275° |
| 2026-05-04 18:46 | 47.46150 | 8.49825 | 3286 ft | 194 kts | 276° |
| 2026-05-04 18:46 | 47.46265 | 8.47799 | 3846 ft | 206 kts | 267° |
| 2026-05-04 18:46 | 47.45776 | 8.45705 | 4180 ft | 230 kts | 233° |
| 2026-05-04 18:46 | 47.44475 | 8.44177 | 4627 ft | 246 kts | 214° |
| 2026-05-04 18:47 | 47.43095 | 8.42565 | 5274 ft | 257 kts | 226° |
| 2026-05-04 18:47 | 47.41935 | 8.40569 | 6077 ft | 264 kts | 230° |
| 2026-05-04 18:47 | 47.40791 | 8.38359 | 6883 ft | 270 kts | 232° |
| 2026-05-04 18:47 | 47.39683 | 8.36099 | 7779 ft | 272 kts | 233° |
| 2026-05-04 18:48 | 47.38609 | 8.33786 | 8703 ft | 274 kts | 237° |
| 2026-05-04 18:48 | 47.37707 | 8.31305 | 9684 ft | 273 kts | 241° |
| 2026-05-04 18:48 | 47.36850 | 8.28793 | 10571 ft | 276 kts | 241° |
| 2026-05-04 18:48 | 47.35956 | 8.26218 | 10953 ft | 299 kts | 241° |
| 2026-05-04 18:49 | 47.34955 | 8.23360 | 11167 ft | 328 kts | 241° |
| 2026-05-04 18:49 | 47.33859 | 8.20256 | 11476 ft | 352 kts | 241° |
| 2026-05-04 18:49 | 47.32707 | 8.17013 | 12290 ft | 362 kts | 241° |
| 2026-05-04 18:49 | 47.31526 | 8.13695 | 13289 ft | 368 kts | 241° |
| 2026-05-04 18:50 | 47.30338 | 8.10332 | 14304 ft | 372 kts | 242° |
| 2026-05-04 18:50 | 47.29134 | 8.06921 | 15299 ft | 376 kts | 242° |
| 2026-05-04 18:50 | 47.27915 | 8.03472 | 16232 ft | 381 kts | 242° |
| 2026-05-04 18:50 | 47.26692 | 7.99982 | 17146 ft | 387 kts | 243° |
| 2026-05-04 18:51 | 47.25593 | 7.96336 | 18047 ft | 392 kts | 246° |
| 2026-05-04 18:51 | 47.24574 | 7.92585 | 18877 ft | 397 kts | 247° |
| 2026-05-04 18:51 | 47.23554 | 7.88780 | 19690 ft | 402 kts | 247° |
| 2026-05-04 18:51 | 47.22515 | 7.84979 | 20493 ft | 405 kts | 246° |
| 2026-05-04 18:52 | 47.21436 | 7.81120 | 21282 ft | 410 kts | 246° |
| 2026-05-04 18:52 | 47.20332 | 7.77214 | 22054 ft | 414 kts | 245° |
| 2026-05-04 18:52 | 47.19052 | 7.73392 | 22800 ft | 418 kts | 239° |
| 2026-05-04 18:52 | 47.17511 | 7.69733 | 23546 ft | 421 kts | 234° |
| 2026-05-04 18:53 | 47.15749 | 7.66345 | 24153 ft | 424 kts | 230° |
| 2026-05-04 18:53 | 47.13890 | 7.62960 | 24778 ft | 428 kts | 230° |
| 2026-05-04 18:53 | 47.12010 | 7.59531 | 25395 ft | 431 kts | 230° |
| 2026-05-04 18:53 | 47.10126 | 7.56079 | 25995 ft | 434 kts | 230° |
| 2026-05-04 18:54 | 47.08229 | 7.52588 | 26577 ft | 438 kts | 230° |
| 2026-05-04 18:54 | 47.06331 | 7.49088 | 27148 ft | 441 kts | 230° |
| 2026-05-04 18:54 | 47.04428 | 7.45583 | 27702 ft | 444 kts | 230° |
| 2026-05-04 18:54 | 47.02490 | 7.42020 | 28226 ft | 447 kts | 230° |
| 2026-05-04 18:55 | 47.00532 | 7.38443 | 28781 ft | 450 kts | 229° |
| 2026-05-04 18:55 | 46.96606 | 7.31312 | 29748 ft | 455 kts | 229° |
| 2026-05-04 18:55 | 46.94608 | 7.27686 | 30140 ft | 457 kts | 230° |
| 2026-05-04 18:56 | 46.92618 | 7.24063 | 30730 ft | 453 kts | 230° |
| 2026-05-04 18:56 | 46.90647 | 7.20471 | 31337 ft | 450 kts | 230° |
| 2026-05-04 18:56 | 46.88702 | 7.16929 | 31861 ft | 448 kts | 230° |
| 2026-05-04 18:56 | 46.86749 | 7.13377 | 32318 ft | 447 kts | 230° |
| 2026-05-04 18:57 | 46.84819 | 7.09872 | 32797 ft | 446 kts | 230° |
| 2026-05-04 18:57 | 46.82868 | 7.06335 | 33042 ft | 449 kts | 230° |
| 2026-05-04 18:57 | 46.78940 | 6.99227 | 33017 ft | 446 kts | 230° |
| 2026-05-04 18:58 | 46.75073 | 6.92249 | 33013 ft | 443 kts | 231° |
| 2026-05-04 18:58 | 46.71188 | 6.85253 | 33031 ft | 441 kts | 230° |
| 2026-05-04 18:59 | 46.67348 | 6.78356 | 33030 ft | 439 kts | 230° |
| 2026-05-04 18:59 | 46.63334 | 6.71636 | 33011 ft | 438 kts | 226° |
| 2026-05-04 19:00 | 46.59171 | 6.65198 | 33032 ft | 438 kts | 226° |
| 2026-05-04 19:00 | 46.54993 | 6.58741 | 33037 ft | 439 kts | 226° |
| 2026-05-04 19:01 | 46.50801 | 6.52251 | 33030 ft | 439 kts | 226° |
| 2026-05-04 19:01 | 46.46635 | 6.45807 | 33015 ft | 440 kts | 226° |
| 2026-05-04 19:02 | 46.42429 | 6.39317 | 33036 ft | 441 kts | 226° |
| 2026-05-04 19:02 | 46.38224 | 6.32847 | 33020 ft | 442 kts | 226° |
| 2026-05-04 19:03 | 46.34006 | 6.26367 | 33023 ft | 441 kts | 226° |
| 2026-05-04 19:03 | 46.29812 | 6.19942 | 33021 ft | 441 kts | 226° |
| 2026-05-04 19:04 | 46.25002 | 6.14563 | 33050 ft | 439 kts | 208° |
| 2026-05-04 19:04 | 46.19242 | 6.11652 | 33013 ft | 444 kts | 192° |
| 2026-05-04 19:05 | 46.13091 | 6.10383 | 33023 ft | 445 kts | 191° |
| 2026-05-04 19:05 | 46.06955 | 6.09112 | 33019 ft | 445 kts | 191° |
| 2026-05-04 19:06 | 46.00855 | 6.07783 | 33014 ft | 446 kts | 192° |
| 2026-05-04 19:06 | 45.94716 | 6.06426 | 33003 ft | 445 kts | 192° |
| 2026-05-04 19:07 | 45.88587 | 6.05077 | 33026 ft | 445 kts | 192° |
| 2026-05-04 19:07 | 45.82486 | 6.03739 | 33025 ft | 445 kts | 192° |
| 2026-05-04 19:08 | 45.76340 | 6.02382 | 33009 ft | 446 kts | 191° |
| 2026-05-04 19:08 | 45.70226 | 6.01034 | 33023 ft | 447 kts | 192° |
| 2026-05-04 19:09 | 45.64057 | 5.99680 | 33032 ft | 447 kts | 191° |
| 2026-05-04 19:09 | 45.57886 | 5.98325 | 33023 ft | 448 kts | 191° |
| 2026-05-04 19:10 | 45.51912 | 5.97019 | 33017 ft | 449 kts | 191° |